sensor_id;sensor_type;location;lat;lon;timestamp;pressure;altitude;pressure_sealevel;temperature;humidity
12211;BME280;6168;42.658;23.298;2022-08-02T04:00:24;64367.56;;;-139.92;100.00
12211;BME280;6168;42.658;23.298;2022-08-02T04:02:52;64348.81;;;-139.92;100.00
12211;BME280;6168;42.658;23.298;2022-08-02T04:05:19;64367.56;;;-139.92;100.00
12211;BME280;6168;42.658;23.298;2022-08-02T04:07:46;64328.00;;;-139.92;100.00
12211;BME280;6168;42.658;23.298;2022-08-02T04:10:14;64413.38;;;-139.92;100.00
12211;BME280;6168;42.658;23.298;2022-08-02T04:12:40;64323.81;;;-139.92;100.00
12211;BME280;6168;42.658;23.298;2022-08-02T04:15:09;64348.81;;;-139.92;100.00
12211;BME280;6168;42.658;23.298;2022-08-02T04:17:43;64373.81;;;-139.92;100.00
12211;BME280;6168;42.658;23.298;2022-08-02T04:20:16;64350.91;;;-139.92;100.00
12211;BME280;6168;42.658;23.298;2022-08-02T04:22:48;64348.81;;;-139.92;100.00
12211;BME280;6168;42.658;23.298;2022-08-02T04:25:18;64319.66;;;-139.92;100.00
12211;BME280;6168;42.658;23.298;2022-08-02T04:27:46;64336.31;;;-139.92;100.00
12211;BME280;6168;42.658;23.298;2022-08-02T04:30:15;64336.31;;;-139.92;100.00
12211;BME280;6168;42.658;23.298;2022-08-02T04:32:44;64328.00;;;-139.92;100.00
12211;BME280;6168;42.658;23.298;2022-08-02T04:35:11;64350.91;;;-139.92;100.00
12211;BME280;6168;42.658;23.298;2022-08-02T04:37:39;64334.25;;;-139.92;100.00
12211;BME280;6168;42.658;23.298;2022-08-02T04:40:08;64303.00;;;-139.92;100.00
12211;BME280;6168;42.658;23.298;2022-08-02T04:42:36;64332.16;;;-139.92;100.00
12211;BME280;6168;42.658;23.298;2022-08-02T04:45:04;64300.94;;;-139.92;100.00
12211;BME280;6168;42.658;23.298;2022-08-02T04:47:31;64321.75;;;-139.92;100.00
12211;BME280;6168;42.658;23.298;2022-08-02T04:50:00;64321.75;;;-139.92;100.00
12211;BME280;6168;42.658;23.298;2022-08-02T04:52:27;64315.50;;;-139.92;100.00
12211;BME280;6168;42.658;23.298;2022-08-02T04:54:54;64298.84;;;-139.92;100.00
12211;BME280;6168;42.658;23.298;2022-08-02T04:57:21;64282.19;;;-139.92;100.00
12211;BME280;6168;42.658;23.298;2022-08-02T05:00:07;64332.16;;;-139.92;100.00
12211;BME280;6168;42.658;23.298;2022-08-02T05:02:35;64265.53;;;-139.92;100.00
12211;BME280;6168;42.658;23.298;2022-08-02T05:05:04;64292.59;;;-139.92;100.00
12211;BME280;6168;42.658;23.298;2022-08-02T05:07:31;64290.50;;;-139.92;100.00
12211;BME280;6168;42.658;23.298;2022-08-02T05:09:57;64240.53;;;-139.92;100.00
12211;BME280;6168;42.658;23.298;2022-08-02T05:12:24;64248.88;;;-139.92;100.00
12211;BME280;6168;42.658;23.298;2022-08-02T05:14:51;64246.78;;;-139.92;99.15
12211;BME280;6168;42.658;23.298;2022-08-02T05:17:18;64261.34;;;-139.92;94.57
12211;BME280;6168;42.658;23.298;2022-08-02T05:19:45;64240.53;;;-139.92;91.64
12211;BME280;6168;42.658;23.298;2022-08-02T05:22:13;64309.25;;;-139.92;84.67
12211;BME280;6168;42.658;23.298;2022-08-02T05:24:40;64280.09;;;-139.92;79.63
12211;BME280;6168;42.658;23.298;2022-08-02T05:27:07;64225.97;;;-139.92;75.92
12211;BME280;6168;42.658;23.298;2022-08-02T05:29:34;64234.28;;;-139.92;74.22
12211;BME280;6168;42.658;23.298;2022-08-02T05:32:01;64244.69;;;-139.92;74.24
12211;BME280;6168;42.658;23.298;2022-08-02T05:34:27;64278.03;;;-139.92;73.57
12211;BME280;6168;42.658;23.298;2022-08-02T05:36:54;64194.72;;;-139.92;67.40
12211;BME280;6168;42.658;23.298;2022-08-02T05:39:23;64219.72;;;-139.92;66.91
12211;BME280;6168;42.658;23.298;2022-08-02T05:41:49;64250.94;;;-139.92;64.22
12211;BME280;6168;42.658;23.298;2022-08-02T05:44:16;64209.31;;;-139.92;64.99
12211;BME280;6168;42.658;23.298;2022-08-02T05:46:43;64198.88;;;-139.92;61.37
12211;BME280;6168;42.658;23.298;2022-08-02T05:49:10;64213.47;;;-139.92;61.10
12211;BME280;6168;42.658;23.298;2022-08-02T05:51:39;64178.06;;;-139.92;62.72
12211;BME280;6168;42.658;23.298;2022-08-02T05:54:16;64203.06;;;-139.92;59.80
12211;BME280;6168;42.658;23.298;2022-08-02T05:56:50;64203.06;;;-139.92;58.79
12211;BME280;6168;42.658;23.298;2022-08-02T05:59:25;64192.66;;;-139.92;59.13
12211;BME280;6168;42.658;23.298;2022-08-02T06:01:56;64234.28;;;-139.92;54.60
12211;BME280;6168;42.658;23.298;2022-08-02T06:04:32;64182.22;;;-139.92;57.07
12211;BME280;6168;42.658;23.298;2022-08-02T06:07:08;64215.56;;;-139.92;52.71
12211;BME280;6168;42.658;23.298;2022-08-02T06:09:37;64180.16;;;-139.92;54.35
12211;BME280;6168;42.658;23.298;2022-08-02T06:12:07;64194.72;;;-139.92;54.34
12211;BME280;6168;42.658;23.298;2022-08-02T06:14:38;64165.56;;;-139.92;53.55
12211;BME280;6168;42.658;23.298;2022-08-02T06:17:07;64205.13;;;-139.92;53.88
12211;BME280;6168;42.658;23.298;2022-08-02T06:19:36;64157.25;;;-139.92;53.40
12211;BME280;6168;42.658;23.298;2022-08-02T06:22:03;64144.75;;;-139.92;53.78
12211;BME280;6168;42.658;23.298;2022-08-02T06:24:42;64165.56;;;-139.92;53.45
12211;BME280;6168;42.658;23.298;2022-08-02T06:27:12;64194.72;;;-139.92;52.56
12211;BME280;6168;42.658;23.298;2022-08-02T06:29:39;64144.75;;;-139.92;50.93
12211;BME280;6168;42.658;23.298;2022-08-02T06:32:07;64157.25;;;-139.92;53.76
12211;BME280;6168;42.658;23.298;2022-08-02T06:34:35;64153.09;;;-139.92;50.15
12211;BME280;6168;42.658;23.298;2022-08-02T06:37:07;64130.19;;;-139.92;50.29
12211;BME280;6168;42.658;23.298;2022-08-02T06:39:43;64169.75;;;-139.92;50.17
12211;BME280;6168;42.658;23.298;2022-08-02T06:42:16;64163.50;;;-139.92;54.24
12211;BME280;6168;42.658;23.298;2022-08-02T06:44:43;64196.81;;;-139.92;54.73
12211;BME280;6168;42.658;23.298;2022-08-02T06:47:10;64165.56;;;-139.92;50.07
12211;BME280;6168;42.658;23.298;2022-08-02T06:49:37;64157.25;;;-139.92;50.77
12211;BME280;6168;42.658;23.298;2022-08-02T06:52:04;64163.50;;;-139.92;52.61
12211;BME280;6168;42.658;23.298;2022-08-02T06:54:31;64103.09;;;-139.92;49.47
12211;BME280;6168;42.658;23.298;2022-08-02T06:56:58;64159.31;;;-139.92;52.17
12211;BME280;6168;42.658;23.298;2022-08-02T06:59:27;64151.00;;;-139.92;50.11
12211;BME280;6168;42.658;23.298;2022-08-02T07:01:53;64146.84;;;-139.92;48.70
12211;BME280;6168;42.658;23.298;2022-08-02T07:04:21;64207.22;;;-139.92;50.68
12211;BME280;6168;42.658;23.298;2022-08-02T07:06:48;64136.41;;;-139.92;50.07
12211;BME280;6168;42.658;23.298;2022-08-02T07:09:15;64132.25;;;-139.92;49.84
12211;BME280;6168;42.658;23.298;2022-08-02T07:11:42;64180.16;;;-139.92;49.19
12211;BME280;6168;42.658;23.298;2022-08-02T07:14:09;64103.09;;;-139.92;53.63
12211;BME280;6168;42.658;23.298;2022-08-02T07:16:37;64165.56;;;-139.92;50.65
12211;BME280;6168;42.658;23.298;2022-08-02T07:19:04;64151.00;;;-139.92;51.44
12211;BME280;6168;42.658;23.298;2022-08-02T07:21:31;64136.41;;;-139.92;51.67
12211;BME280;6168;42.658;23.298;2022-08-02T07:23:57;64148.91;;;-139.92;48.62
12211;BME280;6168;42.658;23.298;2022-08-02T07:26:24;64134.34;;;-139.92;48.56
12211;BME280;6168;42.658;23.298;2022-08-02T07:28:51;64090.63;;;-139.92;49.29
12211;BME280;6168;42.658;23.298;2022-08-02T07:31:19;64140.59;;;-139.92;49.84
12211;BME280;6168;42.658;23.298;2022-08-02T07:33:47;64130.19;;;-139.92;49.42
12211;BME280;6168;42.658;23.298;2022-08-02T07:36:14;64113.53;;;-139.92;50.08
12211;BME280;6168;42.658;23.298;2022-08-02T07:38:41;64107.28;;;-139.92;49.53
12211;BME280;6168;42.658;23.298;2022-08-02T07:41:08;64134.34;;;-139.92;48.52
12211;BME280;6168;42.658;23.298;2022-08-02T07:43:35;64084.38;;;-139.92;50.32
12211;BME280;6168;42.658;23.298;2022-08-02T07:46:01;64121.84;;;-139.92;48.40
12211;BME280;6168;42.658;23.298;2022-08-02T07:48:28;64107.28;;;-139.92;51.99
12211;BME280;6168;42.658;23.298;2022-08-02T07:50:57;64148.91;;;-139.92;47.57
12211;BME280;6168;42.658;23.298;2022-08-02T07:53:23;64138.50;;;-139.92;48.31
12211;BME280;6168;42.658;23.298;2022-08-02T07:55:50;64107.28;;;-139.92;49.31
12211;BME280;6168;42.658;23.298;2022-08-02T07:58:17;64105.19;;;-139.92;47.81
12211;BME280;6168;42.658;23.298;2022-08-02T08:00:44;64088.53;;;-139.92;47.10
12211;BME280;6168;42.658;23.298;2022-08-02T08:03:11;64080.22;;;-139.92;48.74
12211;BME280;6168;42.658;23.298;2022-08-02T08:05:39;64094.78;;;-139.92;46.29
12211;BME280;6168;42.658;23.298;2022-08-02T08:08:07;64061.47;;;-139.92;49.02
12211;BME280;6168;42.658;23.298;2022-08-02T08:10:34;64094.78;;;-139.92;50.11
12211;BME280;6168;42.658;23.298;2022-08-02T08:13:01;64103.09;;;-139.92;48.88
12211;BME280;6168;42.658;23.298;2022-08-02T08:15:28;64113.53;;;-139.92;46.92
12211;BME280;6168;42.658;23.298;2022-08-02T08:17:55;64065.63;;;-139.92;44.36
12211;BME280;6168;42.658;23.298;2022-08-02T08:20:22;64092.69;;;-139.92;48.20
12211;BME280;6168;42.658;23.298;2022-08-02T08:22:49;64109.34;;;-139.92;47.33
12211;BME280;6168;42.658;23.298;2022-08-02T08:25:17;64057.31;;;-139.92;44.89
12211;BME280;6168;42.658;23.298;2022-08-02T08:27:47;64082.28;;;-139.92;44.61
12211;BME280;6168;42.658;23.298;2022-08-02T08:30:14;64082.28;;;-139.92;47.16
12211;BME280;6168;42.658;23.298;2022-08-02T08:32:41;64055.22;;;-139.92;47.50
12211;BME280;6168;42.658;23.298;2022-08-02T08:35:08;64028.16;;;-139.92;46.27
12211;BME280;6168;42.658;23.298;2022-08-02T08:37:35;64084.38;;;-139.92;44.72
12211;BME280;6168;42.658;23.298;2022-08-02T08:40:03;64078.13;;;-139.92;43.42
12211;BME280;6168;42.658;23.298;2022-08-02T08:42:32;64053.13;;;-139.92;44.81
12211;BME280;6168;42.658;23.298;2022-08-02T08:45:00;64034.41;;;-139.92;44.76
12211;BME280;6168;42.658;23.298;2022-08-02T08:47:32;64090.63;;;-139.92;43.72
12211;BME280;6168;42.658;23.298;2022-08-02T08:50:02;64059.38;;;-139.92;42.80
12211;BME280;6168;42.658;23.298;2022-08-02T08:52:34;64088.53;;;-139.92;45.44
12211;BME280;6168;42.658;23.298;2022-08-02T08:55:02;64065.63;;;-139.92;46.04
12211;BME280;6168;42.658;23.298;2022-08-02T08:57:29;64053.13;;;-139.92;44.36
12211;BME280;6168;42.658;23.298;2022-08-02T08:59:59;64040.66;;;-139.92;43.73
12211;BME280;6168;42.658;23.298;2022-08-02T09:02:26;64042.72;;;-139.92;45.96
12211;BME280;6168;42.658;23.298;2022-08-02T09:04:54;64038.56;;;-139.92;43.38
12211;BME280;6168;42.658;23.298;2022-08-02T09:07:21;64046.88;;;-139.92;47.17
12211;BME280;6168;42.658;23.298;2022-08-02T09:09:48;64036.47;;;-139.92;43.99
12211;BME280;6168;42.658;23.298;2022-08-02T09:12:15;64032.31;;;-139.92;42.98
12211;BME280;6168;42.658;23.298;2022-08-02T09:14:44;64044.81;;;-139.92;47.72
12211;BME280;6168;42.658;23.298;2022-08-02T09:17:13;64063.53;;;-139.92;41.42
12211;BME280;6168;42.658;23.298;2022-08-02T09:19:39;64007.31;;;-139.92;43.55
12211;BME280;6168;42.658;23.298;2022-08-02T09:22:08;64028.16;;;-139.92;43.88
12211;BME280;6168;42.658;23.298;2022-08-02T09:24:44;64023.97;;;-139.92;41.77
12211;BME280;6168;42.658;23.298;2022-08-02T09:27:12;64019.81;;;-139.92;40.57
12211;BME280;6168;42.658;23.298;2022-08-02T09:29:40;64019.81;;;-139.92;42.62
12211;BME280;6168;42.658;23.298;2022-08-02T09:32:10;64011.50;;;-139.92;41.76
12211;BME280;6168;42.658;23.298;2022-08-02T09:34:46;64021.91;;;-139.92;38.13
12211;BME280;6168;42.658;23.298;2022-08-02T09:37:24;64036.47;;;-139.92;38.24
12211;BME280;6168;42.658;23.298;2022-08-02T09:39:51;64053.13;;;-139.92;38.94
12211;BME280;6168;42.658;23.298;2022-08-02T09:42:18;64042.72;;;-139.92;37.84
12211;BME280;6168;42.658;23.298;2022-08-02T09:44:54;64053.13;;;-139.92;37.30
12211;BME280;6168;42.658;23.298;2022-08-02T09:47:21;64032.31;;;-139.92;41.67
12211;BME280;6168;42.658;23.298;2022-08-02T09:49:50;64028.16;;;-139.92;38.83
12211;BME280;6168;42.658;23.298;2022-08-02T09:52:21;64036.47;;;-139.92;39.01
12211;BME280;6168;42.658;23.298;2022-08-02T09:54:48;64011.50;;;-139.92;39.75
12211;BME280;6168;42.658;23.298;2022-08-02T09:57:24;63986.50;;;-139.92;40.81
12211;BME280;6168;42.658;23.298;2022-08-02T09:59:51;64028.16;;;-139.92;42.37
12211;BME280;6168;42.658;23.298;2022-08-02T10:02:18;64003.16;;;-139.92;40.56
12211;BME280;6168;42.658;23.298;2022-08-02T10:04:45;64013.56;;;-139.92;41.68
12211;BME280;6168;42.658;23.298;2022-08-02T10:07:14;64007.31;;;-139.92;40.23
12211;BME280;6168;42.658;23.298;2022-08-02T10:09:42;63990.66;;;-139.92;39.68
12211;BME280;6168;42.658;23.298;2022-08-02T10:12:10;64023.97;;;-139.92;37.20
12211;BME280;6168;42.658;23.298;2022-08-02T10:14:38;64009.41;;;-139.92;40.82
12211;BME280;6168;42.658;23.298;2022-08-02T10:17:06;63996.91;;;-139.92;39.83
12211;BME280;6168;42.658;23.298;2022-08-02T10:19:33;64009.41;;;-139.92;39.31
12211;BME280;6168;42.658;23.298;2022-08-02T10:22:03;64011.50;;;-139.92;40.89
12211;BME280;6168;42.658;23.298;2022-08-02T10:24:35;64007.31;;;-139.92;39.15
12211;BME280;6168;42.658;23.298;2022-08-02T10:27:05;64005.25;;;-139.92;39.21
12211;BME280;6168;42.658;23.298;2022-08-02T10:29:34;64013.56;;;-139.92;38.34
12211;BME280;6168;42.658;23.298;2022-08-02T10:32:06;64003.16;;;-139.92;37.06
12211;BME280;6168;42.658;23.298;2022-08-02T10:34:35;64023.97;;;-139.92;39.76
12211;BME280;6168;42.658;23.298;2022-08-02T10:37:04;63957.34;;;-139.92;39.42
12211;BME280;6168;42.658;23.298;2022-08-02T10:39:39;63974.00;;;-139.92;38.72
12211;BME280;6168;42.658;23.298;2022-08-02T10:42:06;63984.44;;;-139.92;38.02
12211;BME280;6168;42.658;23.298;2022-08-02T10:44:34;63996.91;;;-139.92;40.53
12211;BME280;6168;42.658;23.298;2022-08-02T10:47:25;64007.31;;;-139.92;38.09
12211;BME280;6168;42.658;23.298;2022-08-02T10:49:53;63974.00;;;-139.92;38.68
12211;BME280;6168;42.658;23.298;2022-08-02T10:52:22;64005.25;;;-139.92;39.32
12211;BME280;6168;42.658;23.298;2022-08-02T10:54:54;63992.75;;;-139.92;38.01
12211;BME280;6168;42.658;23.298;2022-08-02T10:57:23;63969.84;;;-139.92;38.00
12211;BME280;6168;42.658;23.298;2022-08-02T10:59:53;63955.28;;;-139.92;38.93
12211;BME280;6168;42.658;23.298;2022-08-02T11:02:35;63984.44;;;-139.92;38.67
12211;BME280;6168;42.658;23.298;2022-08-02T11:05:06;63996.91;;;-139.92;37.96
12211;BME280;6168;42.658;23.298;2022-08-02T11:07:38;63953.19;;;-139.92;36.15
12211;BME280;6168;42.658;23.298;2022-08-02T11:10:33;63955.28;;;-139.92;35.99
12211;BME280;6168;42.658;23.298;2022-08-02T11:13:03;63988.59;;;-139.92;37.44
12211;BME280;6168;42.658;23.298;2022-08-02T11:15:47;63955.28;;;-139.92;36.02
12211;BME280;6168;42.658;23.298;2022-08-02T11:18:14;63957.34;;;-139.92;40.58
12211;BME280;6168;42.658;23.298;2022-08-02T11:20:41;63940.69;;;-139.92;36.81
12211;BME280;6168;42.658;23.298;2022-08-02T11:23:34;63930.28;;;-139.92;37.89
12211;BME280;6168;42.658;23.298;2022-08-02T11:26:03;63963.59;;;-139.92;36.20
12211;BME280;6168;42.658;23.298;2022-08-02T11:28:49;63986.50;;;-139.92;37.44
12211;BME280;6168;42.658;23.298;2022-08-02T11:31:17;63961.53;;;-139.92;38.84
12211;BME280;6168;42.658;23.298;2022-08-02T11:33:44;63978.19;;;-139.92;37.71
12211;BME280;6168;42.658;23.298;2022-08-02T11:36:11;64003.16;;;-139.92;39.30
12211;BME280;6168;42.658;23.298;2022-08-02T11:38:38;64044.81;;;-139.92;37.66
12211;BME280;6168;42.658;23.298;2022-08-02T11:41:06;64015.66;;;-139.92;38.39
12211;BME280;6168;42.658;23.298;2022-08-02T11:43:34;64003.16;;;-139.92;40.13
12211;BME280;6168;42.658;23.298;2022-08-02T11:46:02;64007.31;;;-139.92;40.75
12211;BME280;6168;42.658;23.298;2022-08-02T11:48:31;64003.16;;;-139.92;39.84
12211;BME280;6168;42.658;23.298;2022-08-02T11:51:03;63971.94;;;-139.92;37.24
12211;BME280;6168;42.658;23.298;2022-08-02T11:53:33;63953.19;;;-139.92;38.75
12211;BME280;6168;42.658;23.298;2022-08-02T11:56:08;63894.91;;;-139.92;38.25
12211;BME280;6168;42.658;23.298;2022-08-02T11:58:35;63930.28;;;-139.92;37.92
12211;BME280;6168;42.658;23.298;2022-08-02T12:01:03;63905.31;;;-139.92;37.33
12211;BME280;6168;42.658;23.298;2022-08-02T12:03:33;63903.22;;;-139.92;34.49
12211;BME280;6168;42.658;23.298;2022-08-02T12:06:00;63874.06;;;-139.92;33.79
12211;BME280;6168;42.658;23.298;2022-08-02T12:08:29;63894.91;;;-139.92;35.94
12211;BME280;6168;42.658;23.298;2022-08-02T12:11:00;63909.47;;;-139.92;37.02
12211;BME280;6168;42.658;23.298;2022-08-02T12:13:40;63876.16;;;-139.92;36.08
12211;BME280;6168;42.658;23.298;2022-08-02T12:16:10;63938.63;;;-139.92;35.19
12211;BME280;6168;42.658;23.298;2022-08-02T12:18:50;63909.47;;;-139.92;34.82
12211;BME280;6168;42.658;23.298;2022-08-02T12:21:35;63894.91;;;-139.92;35.70
12211;BME280;6168;42.658;23.298;2022-08-02T12:24:02;63921.97;;;-139.92;34.81
12211;BME280;6168;42.658;23.298;2022-08-02T12:26:29;63959.44;;;-139.92;35.31
12211;BME280;6168;42.658;23.298;2022-08-02T12:28:58;63959.44;;;-139.92;36.94
12211;BME280;6168;42.658;23.298;2022-08-02T12:31:39;63953.19;;;-139.92;37.00
12211;BME280;6168;42.658;23.298;2022-08-02T12:34:11;63930.28;;;-139.92;37.71
12211;BME280;6168;42.658;23.298;2022-08-02T12:36:40;63969.84;;;-139.92;36.84
12211;BME280;6168;42.658;23.298;2022-08-02T12:39:11;63961.53;;;-139.92;38.58
12211;BME280;6168;42.658;23.298;2022-08-02T12:41:39;63986.50;;;-139.92;37.10
12211;BME280;6168;42.658;23.298;2022-08-02T12:44:15;63942.78;;;-139.92;39.58
12211;BME280;6168;42.658;23.298;2022-08-02T12:46:43;63940.69;;;-139.92;38.62
12211;BME280;6168;42.658;23.298;2022-08-02T12:49:14;63961.53;;;-139.92;37.66
12211;BME280;6168;42.658;23.298;2022-08-02T12:51:41;63940.69;;;-139.92;35.61
12211;BME280;6168;42.658;23.298;2022-08-02T12:54:13;63936.53;;;-139.92;37.45
12211;BME280;6168;42.658;23.298;2022-08-02T12:56:40;63934.47;;;-139.92;38.47
12211;BME280;6168;42.658;23.298;2022-08-02T12:59:07;63890.72;;;-139.92;39.48
12211;BME280;6168;42.658;23.298;2022-08-02T13:01:36;63886.56;;;-139.92;36.66
12211;BME280;6168;42.658;23.298;2022-08-02T13:04:03;63928.22;;;-139.92;34.55
12211;BME280;6168;42.658;23.298;2022-08-02T13:06:30;63930.28;;;-139.92;35.36
12211;BME280;6168;42.658;23.298;2022-08-02T13:08:58;63957.34;;;-139.92;35.71
12211;BME280;6168;42.658;23.298;2022-08-02T13:11:25;63928.22;;;-139.92;37.79
12211;BME280;6168;42.658;23.298;2022-08-02T13:13:53;63951.13;;;-139.92;36.37
12211;BME280;6168;42.658;23.298;2022-08-02T13:16:20;63957.34;;;-139.92;38.39
12211;BME280;6168;42.658;23.298;2022-08-02T13:18:50;63976.09;;;-139.92;37.28
12211;BME280;6168;42.658;23.298;2022-08-02T13:21:17;63988.59;;;-139.92;37.19
12211;BME280;6168;42.658;23.298;2022-08-02T13:23:44;63957.34;;;-139.92;37.46
12211;BME280;6168;42.658;23.298;2022-08-02T13:26:10;63986.50;;;-139.92;35.71
12211;BME280;6168;42.658;23.298;2022-08-02T13:28:37;63957.34;;;-139.92;35.26
12211;BME280;6168;42.658;23.298;2022-08-02T13:31:07;63917.78;;;-139.92;35.57
12211;BME280;6168;42.658;23.298;2022-08-02T13:33:34;63924.03;;;-139.92;34.21
12211;BME280;6168;42.658;23.298;2022-08-02T13:36:02;63865.75;;;-139.92;33.92
12211;BME280;6168;42.658;23.298;2022-08-02T13:38:29;63903.22;;;-139.92;33.50
12211;BME280;6168;42.658;23.298;2022-08-02T13:40:56;63892.81;;;-139.92;33.77
12211;BME280;6168;42.658;23.298;2022-08-02T13:43:35;63865.75;;;-139.92;34.45
12211;BME280;6168;42.658;23.298;2022-08-02T13:46:03;63874.06;;;-139.92;33.87
12211;BME280;6168;42.658;23.298;2022-08-02T13:48:31;63913.63;;;-139.92;33.71
12211;BME280;6168;42.658;23.298;2022-08-02T13:50:58;63863.66;;;-139.92;34.67
12211;BME280;6168;42.658;23.298;2022-08-02T13:53:27;63832.44;;;-139.92;33.52
12211;BME280;6168;42.658;23.298;2022-08-02T13:55:54;63836.59;;;-139.92;33.69
12211;BME280;6168;42.658;23.298;2022-08-02T13:58:23;63832.44;;;-139.92;33.06
12211;BME280;6168;42.658;23.298;2022-08-02T14:00:50;63851.16;;;-139.92;33.40
12211;BME280;6168;42.658;23.298;2022-08-02T14:03:16;63865.75;;;-139.92;34.31
12211;BME280;6168;42.658;23.298;2022-08-02T14:05:43;63888.66;;;-139.92;34.11
12211;BME280;6168;42.658;23.298;2022-08-02T14:08:10;63913.63;;;-139.92;33.93
12211;BME280;6168;42.658;23.298;2022-08-02T14:10:39;63924.03;;;-139.92;34.34
12211;BME280;6168;42.658;23.298;2022-08-02T14:13:05;63924.03;;;-139.92;35.12
12211;BME280;6168;42.658;23.298;2022-08-02T14:15:33;63913.63;;;-139.92;34.43
12211;BME280;6168;42.658;23.298;2022-08-02T14:17:59;63940.69;;;-139.92;34.42
12211;BME280;6168;42.658;23.298;2022-08-02T14:20:26;63932.38;;;-139.92;34.08
12211;BME280;6168;42.658;23.298;2022-08-02T14:22:53;63934.47;;;-139.92;35.76
12211;BME280;6168;42.658;23.298;2022-08-02T14:25:20;63951.13;;;-139.92;35.87
12211;BME280;6168;42.658;23.298;2022-08-02T14:27:48;63976.09;;;-139.92;37.50
12211;BME280;6168;42.658;23.298;2022-08-02T14:30:15;63921.97;;;-139.92;35.07
12211;BME280;6168;42.658;23.298;2022-08-02T14:32:42;63924.03;;;-139.92;38.84
12211;BME280;6168;42.658;23.298;2022-08-02T14:35:09;63888.66;;;-139.92;35.09
12211;BME280;6168;42.658;23.298;2022-08-02T14:37:36;63909.47;;;-139.92;34.45
12211;BME280;6168;42.658;23.298;2022-08-02T14:40:03;63894.91;;;-139.92;33.57
12211;BME280;6168;42.658;23.298;2022-08-02T14:42:30;63899.06;;;-139.92;35.57
12211;BME280;6168;42.658;23.298;2022-08-02T14:44:59;63892.81;;;-139.92;34.56
12211;BME280;6168;42.658;23.298;2022-08-02T14:47:26;63894.91;;;-139.92;34.04
12211;BME280;6168;42.658;23.298;2022-08-02T14:49:53;63917.78;;;-139.92;35.45
12211;BME280;6168;42.658;23.298;2022-08-02T14:52:19;63882.41;;;-139.92;34.86
12211;BME280;6168;42.658;23.298;2022-08-02T14:54:46;63936.53;;;-139.92;35.11
12211;BME280;6168;42.658;23.298;2022-08-02T14:57:14;63944.88;;;-139.92;35.07
12211;BME280;6168;42.658;23.298;2022-08-02T14:59:40;63909.47;;;-139.92;33.79
12211;BME280;6168;42.658;23.298;2022-08-02T15:02:09;63951.13;;;-139.92;34.60
12211;BME280;6168;42.658;23.298;2022-08-02T15:04:36;63982.34;;;-139.92;36.08
12211;BME280;6168;42.658;23.298;2022-08-02T15:07:03;63949.03;;;-139.92;35.92
12211;BME280;6168;42.658;23.298;2022-08-02T15:09:30;63938.63;;;-139.92;35.21
12211;BME280;6168;42.658;23.298;2022-08-02T15:11:57;63940.69;;;-139.92;34.62
12211;BME280;6168;42.658;23.298;2022-08-02T15:14:24;63957.34;;;-139.92;36.07
12211;BME280;6168;42.658;23.298;2022-08-02T15:16:50;63924.03;;;-139.92;34.42
12211;BME280;6168;42.658;23.298;2022-08-02T15:19:19;63930.28;;;-139.92;33.80
12211;BME280;6168;42.658;23.298;2022-08-02T15:21:45;63928.22;;;-139.92;34.78
12211;BME280;6168;42.658;23.298;2022-08-02T15:24:12;63963.59;;;-139.92;35.28
12211;BME280;6168;42.658;23.298;2022-08-02T15:26:39;64009.41;;;-139.92;35.44
12211;BME280;6168;42.658;23.298;2022-08-02T15:29:06;63953.19;;;-139.92;34.79
12211;BME280;6168;42.658;23.298;2022-08-02T15:31:33;63969.84;;;-139.92;36.13
12211;BME280;6168;42.658;23.298;2022-08-02T15:34:00;63942.78;;;-139.92;38.15
12211;BME280;6168;42.658;23.298;2022-08-02T15:36:28;63984.44;;;-139.92;37.86
12211;BME280;6168;42.658;23.298;2022-08-02T15:38:55;63965.69;;;-139.92;37.41
12211;BME280;6168;42.658;23.298;2022-08-02T15:41:22;63978.19;;;-139.92;37.43
12211;BME280;6168;42.658;23.298;2022-08-02T15:43:48;64003.16;;;-139.92;37.95
12211;BME280;6168;42.658;23.298;2022-08-02T15:46:15;63965.69;;;-139.92;37.96
12211;BME280;6168;42.658;23.298;2022-08-02T15:48:42;63957.34;;;-139.92;38.54
12211;BME280;6168;42.658;23.298;2022-08-02T15:51:09;63984.44;;;-139.92;37.32
12211;BME280;6168;42.658;23.298;2022-08-02T15:53:37;63936.53;;;-139.92;36.97
12211;BME280;6168;42.658;23.298;2022-08-02T15:56:04;63961.53;;;-139.92;36.43
12211;BME280;6168;42.658;23.298;2022-08-02T15:58:32;63965.69;;;-139.92;36.37
12211;BME280;6168;42.658;23.298;2022-08-02T16:00:59;63944.88;;;-139.92;35.66
12211;BME280;6168;42.658;23.298;2022-08-02T16:03:26;63949.03;;;-139.92;36.94
12211;BME280;6168;42.658;23.298;2022-08-02T16:05:53;63982.34;;;-139.92;36.40
12211;BME280;6168;42.658;23.298;2022-08-02T16:08:19;63969.84;;;-139.92;36.49
12211;BME280;6168;42.658;23.298;2022-08-02T16:10:48;63971.94;;;-139.92;36.69
12211;BME280;6168;42.658;23.298;2022-08-02T16:13:15;63961.53;;;-139.92;37.18
12211;BME280;6168;42.658;23.298;2022-08-02T16:15:59;63982.34;;;-139.92;37.53
12211;BME280;6168;42.658;23.298;2022-08-02T16:18:26;63999.00;;;-139.92;38.17
12211;BME280;6168;42.658;23.298;2022-08-02T16:20:53;63982.34;;;-139.92;38.96
12211;BME280;6168;42.658;23.298;2022-08-02T16:23:20;63971.94;;;-139.92;39.67
12211;BME280;6168;42.658;23.298;2022-08-02T16:25:48;63978.19;;;-139.92;40.57
12211;BME280;6168;42.658;23.298;2022-08-02T16:28:15;63990.66;;;-139.92;40.18
12211;BME280;6168;42.658;23.298;2022-08-02T16:30:42;64003.16;;;-139.92;40.35
12211;BME280;6168;42.658;23.298;2022-08-02T16:33:09;64013.56;;;-139.92;39.32
12211;BME280;6168;42.658;23.298;2022-08-02T16:35:36;64007.31;;;-139.92;40.49
12211;BME280;6168;42.658;23.298;2022-08-02T16:38:03;63986.50;;;-139.92;40.54
12211;BME280;6168;42.658;23.298;2022-08-02T16:40:29;64032.31;;;-139.92;39.87
12211;BME280;6168;42.658;23.298;2022-08-02T16:43:00;64034.41;;;-139.92;39.94
12211;BME280;6168;42.658;23.298;2022-08-02T16:45:28;63980.25;;;-139.92;38.11